Flight Track Log - Related Links

Times and Time Zones

All times are in EDT time to prevent confusion due to time zone crossing. See the AVA28 flight status page for this flight to view local times or setup timezone preferences in your user account.


Time Position Orientation Groundspeed Altitude Reporting Facility
EDT Latitude Longitude Course Direction KTS MPH feet Rate Location/Type
Wed 01:57:00 PM 27.2252 -80.8872 345° North  Level Estimated
Wed 01:58:00 PM 27.3376 -80.9262 343° North  Level Estimated
Wed 01:59:00 PM 27.4500 -80.9652 343° North  Level Estimated
Wed 02:00:00 PM 27.5624 -81.0043 343° North  Level Estimated
Wed 02:00:06 PM 23.2489 -79.2242 343° North 455 524 33,900  Level Miami Center
Wed 02:01:00 PM 27.6747 -81.0435 343° North  Level Estimated
Wed 02:01:06 PM 23.3747 -79.1969 11° North 435 501 34,000  Level Miami Center
Wed 02:02:00 PM 27.7871 -81.0828 343° North  Level Estimated
Wed 02:02:06 PM 23.5003 -79.1767 North 426 490 34,000  Level Miami Center
Wed 02:03:00 PM 27.8995 -81.1222 343° North  Level Estimated
Wed 02:03:06 PM 23.5989 -79.1467 16° North 431 496 34,000  Level Miami Center
Wed 02:04:00 PM 28.0118 -81.1616 343° North  Level Estimated
Wed 02:04:06 PM 23.7164 -79.1239 10° North 433 498 34,000  Level Miami Center
Wed 02:05:00 PM 28.1241 -81.2011 343° North  Level Estimated
Wed 02:05:06 PM 23.8397 -79.1056 North 442 509 34,000  Level Miami Center
Wed 02:06:06 PM 23.9589 -79.1122 357° North 427 491 34,000  Level Miami Center
Wed 02:07:06 PM 24.0708 -79.1667 336° Northwest 427 491 34,000  Level Miami Center
Wed 02:08:06 PM 24.1850 -79.2211 336° Northwest 426 490 34,000  Level Miami Center
Wed 02:09:06 PM 24.2969 -79.2733 337° Northwest 431 496 34,000 -50 Level Miami Center
Wed 02:10:06 PM 24.4067 -79.3278 336° Northwest 431 496 33,900  Descending Miami Center
Wed 02:11:06 PM 24.5186 -79.3828 336° Northwest 437 503 34,000 50 Climbing Miami Center
Wed 02:12:06 PM 24.6264 -79.4397 334° Northwest 437 503 34,000 -50 Level Miami Center
Wed 02:13:06 PM 24.7339 -79.4944 335° Northwest 432 497 33,900  Descending Miami Center
Wed 02:14:18 PM 24.8458 -79.5472 337° Northwest 432 497 34,000 45 Climbing Miami Center
Wed 02:15:18 PM 24.9783 -79.6144 335° Northwest 432 497 34,000  Level Miami Center
Wed 02:16:18 PM 25.0675 -79.6600 335° Northwest 437 503 34,000  Level Miami Center
Wed 02:17:18 PM 25.1978 -79.7225 337° Northwest 437 503 34,000 -50 Level Miami Center
Wed 02:18:18 PM 25.3075 -79.7781 335° Northwest 437 503 33,900 -500 Descending Miami Center
Wed 02:19:18 PM 25.4150 -79.8314 336° Northwest 431 496 33,000 -950 Descending Miami Center
Wed 02:20:18 PM 25.5247 -79.8869 335° Northwest 431 496 32,000 -1,000 Descending Miami Center
Wed 02:21:18 PM 25.6383 -79.9428 336° Northwest 431 496 31,000 -950 Descending Miami Center
Wed 02:22:18 PM 25.7458 -79.9986 335° Northwest 436 502 30,100 -550 Descending Miami Center
Wed 02:23:18 PM 25.8511 -80.0519 335° Northwest 431 496 29,900 -50 Descending Miami Center
Wed 02:24:18 PM 25.9586 -80.1081 335° Northwest 431 496 30,000 50 Climbing Miami Center
Wed 02:25:18 PM 26.0661 -80.1594 337° Northwest 421 484 30,000  Level Miami Center
Wed 02:26:18 PM 26.1756 -80.2158 335° Northwest 421 484 30,000 -200 Level Miami Center
Wed 02:27:18 PM 26.2786 -80.2719 334° Northwest 426 490 29,600 -700 Descending Miami Center
Wed 02:28:18 PM 26.3964 -80.3311 336° Northwest 413 475 28,600 -950 Descending Miami Center
Wed 02:29:18 PM 26.4914 -80.3756 337° Northwest 413 475 27,700 -1,000 Descending Miami Center
Wed 02:30:18 PM 26.6025 -80.4347 335° Northwest 408 470 26,600 -1,000 Descending Miami Center
Wed 02:31:18 PM 26.6956 -80.4794 337° Northwest 403 464 25,700 -950 Descending Miami Center
Wed 02:32:18 PM 26.7986 -80.5292 337° Northwest 397 457 24,700 -1,050 Descending Miami Center
Wed 02:33:18 PM 26.9058 -80.5836 336° Northwest 392 451 23,600 -1,050 Descending Miami Center
Wed 02:34:18 PM 27.0028 -80.6333 335° Northwest 387 445 22,600 -950 Descending Miami Center
Wed 02:35:18 PM 27.0975 -80.6808 336° Northwest 387 445 21,700 -950 Descending Miami Center
Wed 02:36:18 PM 27.1842 -80.7256 335° Northwest 377 434 20,700 -1,000 Descending Miami Center
Wed 02:37:18 PM 27.2789 -80.7733 336° Northwest 377 434 19,700 -1,000 Descending Miami Center
Wed 02:38:18 PM 27.3756 -80.8211 336° Northwest 377 434 18,700 -900 Descending Miami Center
Wed 02:39:18 PM 27.4661 -80.8661 336° Northwest 371 427 17,900 -900 Descending Miami Center
Wed 02:40:18 PM 27.5567 -80.9139 335° Northwest 363 418 16,900 -1,029 Descending Miami Center
Wed 02:42:42 PM 27.7833 -81.0333 335° Northwest 347 399 14,400 -1,206 Descending Orlando TRACON
Wed 02:43:42 PM 27.8667 -81.0667 341° North 342 394 12,800 -1,650 Descending Orlando TRACON
Wed 02:44:42 PM 27.9500 -81.1167 332° Northwest 333 383 11,100 -900 Descending Orlando TRACON
Wed 02:45:42 PM 28.0167 -81.1667 326° Northwest 321 369 11,000  Descending Orlando TRACON
Wed 02:46:36 PM 28.0333 -81.2667 281° West 327 376 11,100 -365 Climbing Orlando TRACON
Wed 02:47:37 PM 28.1000 -81.3333 319° Northwest 324 373 10,300 -952 Descending Orlando TRACON
Wed 02:48:42 PM 28.1833 -81.3833 332° Northwest 297 342 9,100 -569 Descending Orlando TRACON
Wed 02:49:54 PM 28.2667 -81.4500 325° Northwest 303 349 9,000 -52 Descending Orlando TRACON
Wed 02:50:37 PM 28.3000 -81.4833 319° Northwest 295 339 9,000  Level Orlando TRACON
Wed 02:51:49 PM 28.3833 -81.5500 325° Northwest 248 285 9,000  Level Orlando TRACON
Wed 02:52:49 PM 28.4500 -81.5833 336° Northwest 254 292 9,000  Level Orlando TRACON
Wed 02:53:43 PM 28.5000 -81.6167 330° Northwest 251 289 9,000  Level Orlando TRACON
Wed 02:54:43 PM 28.5667 -81.6667 327° Northwest 252 290 9,000  Level Orlando TRACON
Wed 02:55:49 PM 28.5667 -81.7333 270° West 242 278 9,000  Level Orlando TRACON
Wed 02:56:43 PM 28.5167 -81.7833 221° Southwest 242 278 9,000  Level Orlando TRACON
Wed 02:57:43 PM 28.5000 -81.7167 106° East 251 289 9,000  Level Orlando TRACON
Wed 02:58:43 PM 28.5333 -81.6667 53° Northeast 244 281 9,000  Level Orlando TRACON
Wed 02:59:49 PM 28.5667 -81.6000 60° Northeast 251 289 9,000  Level Orlando TRACON
Wed 03:00:43 PM 28.6000 -81.6500 307° West 242 278 9,000  Level Orlando TRACON
Wed 03:01:49 PM 28.6000 -81.7333 270° West 242 278 9,000  Level Orlando TRACON
Wed 03:02:49 PM 28.5500 -81.7500 196° South 238 274 9,000  Level Orlando TRACON
Wed 03:03:49 PM 28.5333 -81.6833 106° East 245 282 9,000  Level Orlando TRACON
Wed 03:04:44 PM 28.5500 -81.6167 74° East 242 278 9,000 52 Level Orlando TRACON
Wed 03:05:44 PM 28.6000 -81.6167 360° North 251 289 9,100  Climbing Orlando TRACON
Wed 03:06:38 PM 28.6000 -81.6833 270° West 246 283 9,000 -53 Descending Orlando TRACON
Wed 03:07:38 PM 28.5833 -81.7500 254° West 243 280 9,000  Level Orlando TRACON
Wed 03:08:38 PM 28.5333 -81.7333 164° South 237 273 9,000  Level Orlando TRACON
Wed 03:09:38 PM 28.5333 -81.6500 90° East 242 278 9,000  Level Orlando TRACON
Wed 03:10:38 PM 28.5667 -81.6000 53° Northeast 251 289 9,000  Level Orlando TRACON
Wed 03:11:38 PM 28.6000 -81.6500 307° West 242 278 9,000  Level Orlando TRACON
Wed 03:12:38 PM 28.6000 -81.7333 270° West 243 280 9,000  Level Orlando TRACON
Wed 03:13:38 PM 28.5500 -81.7667 210° Southwest 240 276 9,000  Level Orlando TRACON
Wed 03:14:38 PM 28.5333 -81.6833 103° East 244 281 9,000  Level Orlando TRACON
Wed 03:15:38 PM 28.5500 -81.6167 74° East 240 276 9,000 -99 Level Orlando TRACON
Wed 03:16:39 PM 28.6167 -81.6000 12° North 255 293 8,800 -694 Descending Orlando TRACON
Wed 03:17:39 PM 28.6833 -81.6000 360° North 249 287 7,600 -900 Descending Orlando TRACON
Wed 03:18:39 PM 28.7500 -81.5833 12° North 247 284 7,000 -250 Descending Orlando TRACON
Wed 03:19:39 PM 28.7667 -81.5167 74° East 240 276 7,100  Climbing Orlando TRACON
Wed 03:20:39 PM 28.7833 -81.4500 74° East 237 273 7,000 -100 Descending Orlando TRACON

Login

Don't have an account? Register now (free) for customized features, flight alerts, and more!